Time;durP1;ratioP1;P1;durP2;ratioP2;P2;SDS_P1;SDS_P2;PMS_P1;PMS_P2;Temp;Humidity;BMP_temperature;BMP_pressure;BME280_temperature;BME280_humidity;BME280_pressure;Samples;Min_cycle;Max_cycle;Signal;HPM_P1;HPM_P2
2022/08/26 00:01:50;;;;;;;9.57;3.33;;;;;;;24.33;87.86;100125.72;4980762;28;20042;-88
2022/08/26 00:04:15;;;;;;;7.45;3.55;;;;;;;24.18;89.57;100126.41;4977032;28;20114;-90
2022/08/26 00:06:41;;;;;;;5.90;3.53;;;;;;;24.10;89.86;100133.09;4986364;28;20047;-89
2022/08/26 00:09:07;;;;;;;7.63;3.70;;;;;;;24.08;90.94;100132.56;4997141;28;20030;-88
2022/08/26 00:11:33;;;;;;;9.25;4.10;;;;;;;24.00;91.43;100130.31;4976099;28;20035;-87
2022/08/26 00:14:04;;;;;;;13.30;4.22;;;;;;;23.81;92.52;100126.38;4974935;28;20050;-87
2022/08/26 00:16:30;;;;;;;12.93;3.65;;;;;;;23.62;94.55;100117.00;4974290;28;20038;-87
2022/08/26 00:18:55;;;;;;;5.85;3.92;;;;;;;23.68;94.93;100121.41;4974638;28;20387;-87
2022/08/26 00:21:24;;;;;;;8.50;4.03;;;;;;;23.90;92.30;100121.28;4975705;28;20117;-89
2022/08/26 00:23:49;;;;;;;10.35;3.47;;;;;;;23.95;92.28;100111.34;4959506;28;20046;-88
2022/08/26 00:26:15;;;;;;;6.95;3.75;;;;;;;24.09;90.64;100109.81;4975600;28;20035;-90
2022/08/26 00:28:40;;;;;;;6.65;3.33;;;;;;;24.21;90.17;100114.25;4974237;28;20038;-87
2022/08/26 00:31:07;;;;;;;6.80;3.28;;;;;;;24.31;89.22;100109.72;4984351;28;20037;-87
2022/08/26 00:33:32;;;;;;;14.35;4.05;;;;;;;23.96;91.73;100112.94;4994035;28;20460;-89
2022/08/26 00:35:58;;;;;;;4.93;3.50;;;;;;;23.75;93.50;100119.28;4993444;28;20042;-89
2022/08/26 00:38:24;;;;;;;9.88;4.38;;;;;;;23.59;94.63;100114.81;4994665;28;20034;-87
2022/08/26 00:40:53;;;;;;;7.85;3.80;;;;;;;23.56;95.08;100118.06;4995074;28;20038;-90
2022/08/26 00:43:21;;;;;;;9.10;4.32;;;;;;;23.45;97.26;100108.19;4994594;28;20062;-89
2022/08/26 00:45:57;;;;;;;6.22;3.72;;;;;;;23.44;96.83;100103.84;4994731;28;20050;-88
2022/08/26 00:48:25;;;;;;;5.95;3.78;;;;;;;23.42;97.85;100100.59;4997554;28;20105;-89
2022/08/26 00:51:00;;;;;;;7.28;4.07;;;;;;;23.32;98.62;100103.16;4995617;28;20037;-88
2022/08/26 00:53:29;;;;;;;10.20;3.80;;;;;;;23.35;98.85;100094.53;4995039;28;20035;-87
2022/08/26 00:56:06;;;;;;;8.80;4.25;;;;;;;23.25;100.00;100095.25;4996219;28;20341;-89
2022/08/26 00:58:34;;;;;;;9.88;4.20;;;;;;;23.22;99.94;100092.25;4997927;28;20039;-88
2022/08/26 01:01:00;;;;;;;5.60;4.15;;;;;;;23.27;99.82;100095.03;4994314;28;20084;-88
2022/08/26 01:03:29;;;;;;;10.52;4.07;;;;;;;23.32;98.73;100089.66;4994297;28;20105;-89
2022/08/26 01:05:59;;;;;;;7.55;4.00;;;;;;;23.40;97.96;100089.19;4994234;28;20045;-90
2022/08/26 01:08:25;;;;;;;5.88;3.85;;;;;;;23.47;97.91;100098.75;4995750;28;20824;-89
2022/08/26 01:10:53;;;;;;;8.77;4.22;;;;;;;23.67;95.95;100100.81;4977050;28;20089;-89
2022/08/26 01:13:19;;;;;;;9.88;3.78;;;;;;;23.79;95.33;100096.06;4995621;28;20049;-91
2022/08/26 01:15:48;;;;;;;9.07;4.00;;;;;;;23.40;98.20;100100.03;4994212;28;20373;-91
2022/08/26 01:18:14;;;;;;;5.40;3.97;;;;;;;23.28;99.03;100096.63;4993775;28;20438;-90
2022/08/26 01:20:59;;;;;;;8.63;4.50;;;;;;;23.03;100.00;100100.72;4995633;28;20101;-90
2022/08/26 01:23:34;;;;;;;6.55;3.70;;;;;;;22.97;100.00;100114.41;4993287;28;20045;-89
2022/08/26 01:26:03;;;;;;;7.35;4.50;;;;;;;22.88;100.00;100107.81;5011715;28;20447;-88
2022/08/26 01:28:32;;;;;;;7.22;4.07;;;;;;;22.83;100.00;100113.19;5010214;28;20387;-90
2022/08/26 01:31:00;;;;;;;9.75;4.07;;;;;;;22.84;100.00;100107.50;4998139;28;20088;-89
2022/08/26 01:33:31;;;;;;;10.20;3.95;;;;;;;22.84;100.00;100104.81;4998158;28;20227;-89
2022/08/26 01:35:57;;;;;;;7.88;3.97;;;;;;;22.85;100.00;100105.63;4998630;28;20511;-89
2022/08/26 01:38:22;;;;;;;6.63;4.25;;;;;;;22.86;100.00;100108.09;5002147;28;20091;-89
2022/08/26 01:40:49;;;;;;;7.97;3.60;;;;;;;22.89;100.00;100112.16;5000132;28;20121;-88
2022/08/26 01:43:23;;;;;;;12.10;4.07;;;;;;;22.93;100.00;100103.31;4998947;28;20038;-90
2022/08/26 01:45:53;;;;;;;10.82;4.00;;;;;;;23.09;100.00;100107.81;4998063;28;20038;-88
2022/08/26 01:48:24;;;;;;;7.07;3.95;;;;;;;22.87;100.00;100104.28;4998397;28;20039;-87
2022/08/26 01:50:51;;;;;;;9.95;4.45;;;;;;;22.85;100.00;100103.75;4999360;28;20046;-88
2022/08/26 01:53:19;;;;;;;6.53;4.40;;;;;;;22.80;100.00;100103.69;4996413;28;20035;-88
2022/08/26 01:55:46;;;;;;;7.05;4.25;;;;;;;;;;4997416;28;20077;-87
2022/08/26 01:58:25;;;;;;;8.93;4.22;;;;;;;22.85;100.00;100100.22;4997429;28;20085;-87
2022/08/26 02:00:51;;;;;;;12.25;4.57;;;;;;;22.94;100.00;100087.88;4997366;28;20034;-89
2022/08/26 02:03:23;;;;;;;8.20;4.30;;;;;;;22.94;100.00;100096.81;5008715;28;20038;-85
2022/08/26 02:05:52;;;;;;;;;;;;;;;22.87;100.00;100082.69;5013144;28;20028;-84
2022/08/26 02:09:10;;;;;;;7.88;4.30;;;;;;;22.78;100.00;100089.59;5013736;28;19988;-85
2022/08/26 02:14:56;;;;;;;5.72;4.20;;;;;;;22.60;100.00;100090.69;4024384;26;20070;-85
2022/08/26 02:17:50;;;;;;;6.85;4.30;;;;;;;22.68;100.00;100089.47;4999562;28;20070;-86
2022/08/26 02:20:35;;;;;;;9.80;4.82;;;;;;;22.57;100.00;100093.13;4997983;28;20114;-86
2022/08/26 02:23:13;;;;;;;8.57;5.10;;;;;;;22.52;100.00;100080.34;4994934;28;20046;-84
2022/08/26 02:25:49;;;;;;;10.50;5.85;;;;;;;22.49;100.00;100086.25;5014188;28;20488;-85
2022/08/26 02:29:43;;;;;;;8.93;6.53;;;;;;;22.40;100.00;100092.34;5014260;28;20102;-85
2022/08/26 02:32:13;;;;;;;8.02;5.63;;;;;;;22.37;100.00;100101.72;4950932;29;20039;-84
2022/08/26 02:34:45;;;;;;;12.95;6.30;;;;;;;22.43;100.00;100092.66;4954463;29;20524;-86
2022/08/26 02:37:32;;;;;;;14.25;5.97;;;;;;;22.36;100.00;100086.63;4925457;29;20039;-83
2022/08/26 02:40:22;;;;;;;12.13;5.60;;;;;;;22.40;100.00;100092.34;4952039;29;20151;-89
2022/08/26 02:42:56;;;;;;;10.32;5.45;;;;;;;22.61;100.00;100089.63;4955040;29;20063;-85
2022/08/26 02:45:26;;;;;;;9.20;5.90;;;;;;;22.62;100.00;100087.75;4944649;29;20066;-86
2022/08/26 02:48:02;;;;;;;8.52;5.22;;;;;;;22.74;100.00;100087.66;4954152;29;20043;-87
2022/08/26 02:50:38;;;;;;;11.52;5.63;;;;;;;22.54;100.00;100089.00;4965653;28;20052;-85
2022/08/26 02:53:06;;;;;;;8.00;5.35;;;;;;;22.42;100.00;100084.78;4954016;29;20040;-85
2022/08/26 02:55:41;;;;;;;8.00;4.93;;;;;;;22.40;100.00;100085.06;4937694;29;20032;-86
2022/08/26 02:58:22;;;;;;;10.20;4.88;;;;;;;22.43;100.00;100078.34;4955342;29;20055;-89
2022/08/26 03:01:20;;;;;;;7.82;4.78;;;;;;;22.69;100.00;100069.50;4932291;29;20079;-85
2022/08/26 03:04:18;;;;;;;7.97;4.80;;;;;;;22.86;100.00;100078.38;4955943;29;20047;-84
2022/08/26 03:07:30;;;;;;;10.30;4.72;;;;;;;22.54;100.00;100075.50;4953257;29;20087;-85
2022/08/26 03:10:06;;;;;;;6.05;4.22;;;;;;;22.52;100.00;100069.53;5011788;28;20042;-86
2022/08/26 03:12:35;;;;;;;14.90;4.90;;;;;;;22.61;100.00;100067.22;5013862;28;20046;-83
2022/08/26 03:15:32;;;;;;;7.18;4.30;;;;;;;22.29;100.00;100052.75;4983275;28;20062;-84
2022/08/26 03:18:06;;;;;;;6.97;4.53;;;;;;;22.17;100.00;100050.97;5013601;28;20113;-84
2022/08/26 03:20:52;;;;;;;7.78;4.32;;;;;;;22.11;100.00;100051.97;5545443;23;21016;-85
2022/08/26 03:23:30;;;;;;;8.40;4.38;;;;;;;22.10;100.00;100052.25;5029887;23;20141;-85
2022/08/26 03:26:00;;;;;;;10.48;5.00;;;;;;;21.99;100.00;100045.06;5005202;28;20073;-84
2022/08/26 03:28:32;;;;;;;7.05;4.47;;;;;;;21.96;100.00;100049.06;4981052;28;20066;-85
2022/08/26 03:31:22;;;;;;;11.48;5.10;;;;;;;21.92;100.00;100047.09;5013366;28;20064;-85
2022/08/26 03:33:50;;;;;;;8.43;4.60;;;;;;;21.82;100.00;100052.31;5005499;28;20050;-86
2022/08/26 03:36:23;;;;;;;8.38;4.85;;;;;;;21.83;100.00;100056.66;5012468;28;20022;-85
2022/08/26 03:41:34;;;;;;;6.60;4.43;;;;;;;21.94;100.00;100051.19;4866090;26;20058;-85
2022/08/26 03:44:20;;;;;;;5.95;4.55;;;;;;;21.95;100.00;100054.69;5012407;28;20042;-86
2022/08/26 03:46:55;;;;;;;8.82;4.78;;;;;;;22.03;100.00;100062.38;5012061;28;20038;-85
2022/08/26 03:49:24;;;;;;;;;;;;;;;21.95;100.00;100063.63;4995697;28;20069;-87
2022/08/26 03:52:10;;;;;;;7.57;4.60;;;;;;;21.93;100.00;100057.66;5014809;28;19906;-85
2022/08/26 03:57:44;;;;;;;8.13;4.82;;;;;;;21.91;100.00;100067.88;1958272;23;20045;-87
2022/08/26 04:00:26;;;;;;;6.68;4.63;;;;;;;21.89;100.00;100067.31;5019488;28;20027;-87
2022/08/26 04:03:03;;;;;;;10.65;5.75;;;;;;;21.85;100.00;100063.44;5007594;28;20055;-86
2022/08/26 04:05:32;;;;;;;10.70;5.38;;;;;;;21.85;100.00;100068.84;5010000;28;20047;-86
2022/08/26 04:08:22;;;;;;;10.95;5.47;;;;;;;21.82;100.00;100074.72;4995627;28;20046;-85
2022/08/26 04:11:36;;;;;;;11.23;5.22;;;;;;;21.86;100.00;100070.47;5008228;28;20053;-87
2022/08/26 04:14:15;;;;;;;10.95;4.93;;;;;;;21.88;100.00;100073.72;4994519;28;20084;-84
2022/08/26 04:16:54;;;;;;;10.77;4.80;;;;;;;21.75;100.00;100076.75;4995777;28;20092;-85
2022/08/26 04:19:36;;;;;;;8.77;5.30;;;;;;;21.64;100.00;100077.69;5008867;28;20056;-85
2022/08/26 04:22:27;;;;;;;9.68;4.90;;;;;;;21.76;100.00;100067.63;5022336;23;20050;-86
2022/08/26 04:25:18;;;;;;;16.38;5.97;;;;;;;21.87;100.00;100072.13;5067134;23;20057;-87
2022/08/26 04:27:47;;;;;;;9.48;5.22;;;;;;;21.87;100.00;100072.13;5011923;28;20117;-87
2022/08/26 04:30:25;;;;;;;11.65;5.20;;;;;;;21.66;100.00;100080.94;5011479;28;20077;-86
2022/08/26 04:32:53;;;;;;;7.80;5.35;;;;;;;21.54;100.00;100083.69;4996795;28;20039;-86
2022/08/26 04:35:30;;;;;;;11.95;5.50;;;;;;;21.50;100.00;100079.06;5011940;28;20046;-85
2022/08/26 04:38:18;;;;;;;11.68;5.00;;;;;;;21.45;100.00;100073.56;5009789;28;20106;-85
2022/08/26 04:41:44;;;;;;;9.23;5.55;;;;;;;21.50;100.00;100077.19;5012643;28;20077;-87
2022/08/26 04:44:48;;;;;;;11.82;5.35;;;;;;;21.50;100.00;100077.19;5012775;28;20507;-85
2022/08/26 04:53:03;;;;;;;9.55;5.20;;;;;;;21.64;100.00;100091.16;5065864;23;20535;-85
2022/08/26 04:56:40;;;;;;;10.40;5.43;;;;;;;21.53;100.00;100086.66;5011534;28;20105;-87
2022/08/26 04:59:31;;;;;;;9.88;5.25;;;;;;;21.51;100.00;100097.66;4952605;29;20106;-86
2022/08/26 05:02:04;;;;;;;7.07;5.30;;;;;;;21.44;100.00;100098.91;4941627;29;20043;-85
2022/08/26 05:04:45;;;;;;;7.55;5.13;;;;;;;21.48;100.00;100100.03;4946678;29;20047;-86
2022/08/26 05:07:11;;;;;;;7.43;5.00;;;;;;;21.46;100.00;100102.16;4937766;29;20047;-88
2022/08/26 05:09:40;;;;;;;8.52;5.10;;;;;;;21.46;100.00;100099.47;4977375;28;20062;-86
2022/08/26 05:12:06;;;;;;;15.55;5.18;;;;;;;21.41;100.00;100094.00;4998744;28;20085;-87
2022/08/26 05:14:32;;;;;;;8.38;5.07;;;;;;;21.45;100.00;100093.25;4980512;28;20403;-86
2022/08/26 05:16:57;;;;;;;11.85;5.85;;;;;;;21.46;100.00;100102.16;4980663;28;20045;-88
2022/08/26 05:19:23;;;;;;;10.20;5.60;;;;;;;21.53;100.00;100102.84;4998988;28;20035;-87
2022/08/26 05:21:49;;;;;;;8.68;5.00;;;;;;;21.56;100.00;100097.78;5003393;28;20177;-86
2022/08/26 05:24:16;;;;;;;7.85;5.32;;;;;;;21.63;100.00;100105.72;4985936;28;20039;-87
2022/08/26 05:26:41;;;;;;;10.18;5.28;;;;;;;21.76;100.00;100105.38;4998307;28;20037;-88
2022/08/26 05:29:07;;;;;;;11.27;5.32;;;;;;;21.79;100.00;100102.19;4980187;28;20117;-88
2022/08/26 05:31:33;;;;;;;9.65;5.00;;;;;;;21.74;100.00;100104.00;4980447;28;20399;-87
2022/08/26 05:34:02;;;;;;;9.70;4.45;;;;;;;21.69;100.00;100106.59;4998383;28;20492;-87
2022/08/26 05:36:32;;;;;;;7.30;4.55;;;;;;;21.79;100.00;100104.06;5002192;28;20475;-90
2022/08/26 05:38:58;;;;;;;6.93;4.47;;;;;;;22.04;100.00;100108.00;4988264;28;20505;-85
2022/08/26 05:41:31;;;;;;;12.52;4.70;;;;;;;22.07;100.00;100104.81;5017990;28;20042;-86
2022/08/26 05:43:59;;;;;;;13.38;4.80;;;;;;;22.03;100.00;100101.00;5014598;28;20049;-83
2022/08/26 05:46:26;;;;;;;8.90;5.18;;;;;;;22.37;100.00;100098.25;4980242;28;20038;-83
2022/08/26 05:48:52;;;;;;;10.57;4.63;;;;;;;23.05;100.00;100095.88;4981203;28;20041;-87
2022/08/26 05:51:18;;;;;;;6.47;5.00;;;;;;;23.53;99.38;100105.81;4994112;28;20069;-87
2022/08/26 05:53:43;;;;;;;9.20;5.07;;;;;;;24.94;88.76;100113.28;4978954;28;20046;-89
2022/08/26 05:56:14;;;;;;;12.65;5.22;;;;;;;24.46;89.83;100117.13;4982983;28;20384;-90
2022/08/26 05:58:43;;;;;;;10.25;4.97;;;;;;;24.94;85.48;100114.09;5002620;28;20030;-91
2022/08/26 06:01:11;;;;;;;13.15;5.22;;;;;;;25.18;83.93;100120.69;4993191;28;20062;-89
2022/08/26 06:03:38;;;;;;;10.65;4.78;;;;;;;25.06;84.85;100117.38;4983766;28;20117;-91
2022/08/26 06:06:16;;;;;;;6.80;4.72;;;;;;;25.50;81.21;100123.22;5003631;28;20025;-90
2022/08/26 06:09:17;;;;;;;14.45;4.30;;;;;;;26.12;77.20;100117.50;5002761;28;20053;-93
2022/08/26 06:11:46;;;;;;;9.35;4.10;;;;;;;26.28;78.29;100120.22;4998892;28;20202;-93
2022/08/26 06:14:17;;;;;;;8.05;3.75;;;;;;;27.44;71.92;100120.59;5001695;28;20519;-90
2022/08/26 06:16:43;;;;;;;6.90;3.93;;;;;;;26.38;75.73;100122.94;4998968;28;20034;-91
2022/08/26 06:19:14;;;;;;;8.63;4.13;;;;;;;26.29;76.79;100125.38;5005090;28;20269;-94
2022/08/26 06:21:41;;;;;;;5.97;3.72;;;;;;;26.76;74.79;100132.31;5005727;28;20042;-86
2022/08/26 06:27:04;;;;;;;4.68;3.65;;;;;;;26.66;75.86;100127.72;5018189;28;20045;-90
2022/08/26 06:29:36;;;;;;;10.38;3.90;;;;;;;27.09;74.42;100129.75;5013302;28;20034;-89
2022/08/26 06:32:02;;;;;;;11.63;3.97;;;;;;;27.20;73.34;100130.50;4984009;28;20034;-89
2022/08/26 06:34:32;;;;;;;8.15;4.00;;;;;;;28.17;69.28;100134.97;5009512;28;20061;-89
2022/08/26 06:37:04;;;;;;;9.02;3.72;;;;;;;28.17;66.57;100136.91;5010719;28;20411;-91
2022/08/26 06:39:30;;;;;;;7.13;3.85;;;;;;;27.68;70.45;100142.44;5002624;28;20109;-88
2022/08/26 06:41:57;;;;;;;7.28;3.88;;;;;;;27.68;70.21;100137.81;5013117;28;20034;-89
2022/08/26 06:44:23;;;;;;;7.13;3.70;;;;;;;28.00;68.58;100139.22;4999199;28;20038;-87
2022/08/26 06:46:48;;;;;;;10.43;4.60;;;;;;;27.85;68.46;100136.59;5000714;28;20029;-86
2022/08/26 06:49:14;;;;;;;11.23;5.07;;;;;;;27.80;69.77;100140.19;5001220;28;20040;-89
2022/08/26 06:51:41;;;;;;;8.60;4.72;;;;;;;28.00;69.70;100144.66;4998796;28;20475;-89
2022/08/26 06:54:09;;;;;;;8.40;4.88;;;;;;;28.16;68.18;100144.28;4999832;28;20088;-91
2022/08/26 06:56:38;;;;;;;9.27;4.57;;;;;;;28.59;66.99;100144.38;4997715;28;20049;-88
2022/08/26 06:59:06;;;;;;;11.40;5.55;;;;;;;28.14;68.89;100146.44;4997327;28;20061;-90
2022/08/26 07:01:34;;;;;;;9.88;5.32;;;;;;;28.29;68.59;100147.41;5000324;28;20062;-91
2022/08/26 07:04:06;;;;;;;15.63;6.53;;;;;;;28.45;65.89;100151.59;4983569;28;20385;-91
2022/08/26 07:06:36;;;;;;;13.02;6.00;;;;;;;28.39;66.06;100152.75;4999880;28;20048;-90
2022/08/26 07:09:04;;;;;;;13.85;6.13;;;;;;;28.53;66.27;100153.72;4997388;28;20121;-90
2022/08/26 07:11:31;;;;;;;12.50;6.82;;;;;;;28.90;64.23;100155.78;4978357;28;20018;-88
2022/08/26 07:13:57;;;;;;;12.65;6.78;;;;;;;28.85;63.91;100155.81;4946552;28;20046;-88
2022/08/26 07:16:24;;;;;;;16.65;6.97;;;;;;;28.98;64.08;100147.75;4984479;28;20513;-86
2022/08/26 07:19:02;;;;;;;12.85;6.57;;;;;;;29.43;61.99;100153.72;4972788;28;20474;-91
2022/08/26 07:21:27;;;;;;;15.85;7.90;;;;;;;29.53;60.77;100151.63;4981615;28;20038;-90
2022/08/26 07:23:55;;;;;;;13.90;7.35;;;;;;;29.50;61.72;100151.44;4980242;28;20996;-88
2022/08/26 07:26:23;;;;;;;15.93;7.07;;;;;;;29.73;61.02;100158.72;4990327;28;20133;-88
2022/08/26 07:28:55;;;;;;;12.25;7.22;;;;;;;29.41;61.52;100142.25;4985827;28;20042;-92
2022/08/26 07:31:23;;;;;;;12.05;6.30;;;;;;;29.56;62.48;100142.06;4998521;28;20034;-87
2022/08/26 07:33:49;;;;;;;15.60;6.70;;;;;;;29.76;59.90;100155.41;4983640;28;20108;-87
2022/08/26 07:36:16;;;;;;;12.23;6.95;;;;;;;29.97;58.80;100155.88;4980651;28;20065;-87
2022/08/26 07:38:43;;;;;;;18.52;7.20;;;;;;;30.31;57.93;100155.56;4991619;28;20377;-87
2022/08/26 07:41:09;;;;;;;16.15;6.55;;;;;;;30.97;55.74;100164.16;4994840;28;20046;-89
2022/08/26 07:43:36;;;;;;;17.95;7.55;;;;;;;31.47;52.72;100155.97;4994108;28;20034;-86
2022/08/26 07:46:02;;;;;;;11.55;6.40;;;;;;;30.87;55.26;100158.88;4995538;28;20094;-86
2022/08/26 07:48:28;;;;;;;14.88;6.53;;;;;;;30.94;53.56;100156.53;4994615;28;20030;-88
2022/08/26 07:50:54;;;;;;;11.15;6.90;;;;;;;31.05;53.90;100155.25;4994848;28;20053;-88
2022/08/26 07:53:20;;;;;;;12.95;7.18;;;;;;;30.77;55.07;100164.56;4983334;28;20502;-86
2022/08/26 07:55:47;;;;;;;12.90;6.90;;;;;;;30.70;56.06;100156.75;4994586;28;20189;-87
2022/08/26 07:58:12;;;;;;;19.75;6.55;;;;;;;30.92;55.68;100161.53;4995058;28;20107;-90
2022/08/26 08:00:38;;;;;;;14.88;7.07;;;;;;;30.70;56.67;100158.66;5009713;28;20030;-87
2022/08/26 08:03:04;;;;;;;18.02;7.30;;;;;;;30.64;56.56;100157.16;4999014;28;20065;-89
2022/08/26 08:05:31;;;;;;;18.17;6.97;;;;;;;30.57;56.63;100154.00;4978884;28;20129;-86
2022/08/26 08:08:06;;;;;;;12.85;7.05;;;;;;;30.86;55.86;100146.28;4994353;28;20034;-90
2022/08/26 08:10:33;;;;;;;14.43;6.65;;;;;;;30.72;56.43;100145.53;4991017;28;20118;-90
2022/08/26 08:12:59;;;;;;;15.32;6.68;;;;;;;31.12;54.41;100146.63;4966017;28;20476;-87
2022/08/26 08:15:28;;;;;;;13.63;7.63;;;;;;;31.16;54.51;100144.88;4959358;28;20034;-88
2022/08/26 08:17:56;;;;;;;13.82;6.22;;;;;;;31.51;55.15;100140.56;4977409;28;20468;-89
2022/08/26 08:20:22;;;;;;;15.32;6.18;;;;;;;31.51;53.56;100146.03;4995667;28;20038;-89
2022/08/26 08:22:50;;;;;;;11.77;6.10;;;;;;;32.09;51.90;100138.56;4970643;28;20093;-88
2022/08/26 08:25:16;;;;;;;12.60;6.75;;;;;;;32.45;50.07;100140.38;4985290;28;20042;-88
2022/08/26 08:27:43;;;;;;;14.57;6.47;;;;;;;33.14;48.18;100149.69;4990532;28;20034;-89
2022/08/26 08:30:11;;;;;;;16.15;6.15;;;;;;;32.70;48.67;100146.00;4993901;28;20038;-88
2022/08/26 08:32:39;;;;;;;15.35;4.88;;;;;;;33.19;47.22;100146.78;4994792;28;20041;-87
2022/08/26 08:35:07;;;;;;;16.85;5.90;;;;;;;33.19;46.65;100147.59;4990076;28;20037;-88
2022/08/26 08:37:34;;;;;;;13.10;6.15;;;;;;;33.39;46.11;100146.16;4999650;28;20030;-91
2022/08/26 08:40:08;;;;;;;14.93;5.75;;;;;;;33.68;45.66;100142.78;5005870;28;20022;-87
2022/08/26 08:42:52;;;;;;;7.53;5.00;;;;;;;33.61;46.03;100137.00;4999854;28;20114;-89
2022/08/26 08:45:24;;;;;;;19.23;6.35;;;;;;;33.17;46.43;100138.06;4973089;28;20039;-88
2022/08/26 08:47:57;;;;;;;13.55;6.38;;;;;;;33.35;46.53;100139.69;4985506;28;20123;-89
2022/08/26 08:50:30;;;;;;;13.27;6.90;;;;;;;33.38;45.85;100138.25;4973592;28;20030;-92
2022/08/26 08:53:01;;;;;;;15.70;6.53;;;;;;;33.73;45.40;100134.38;4980464;28;20050;-87
2022/08/26 08:55:39;;;;;;;13.10;5.90;;;;;;;33.64;45.42;100136.34;4967376;28;20117;-88
2022/08/26 08:58:10;;;;;;;12.15;5.82;;;;;;;34.62;42.86;100144.53;4959228;28;20045;-88
2022/08/26 09:00:45;;;;;;;16.05;6.90;;;;;;;33.83;44.25;100134.03;4984726;28;20038;-86
2022/08/26 09:03:35;;;;;;;12.52;6.43;;;;;;;33.72;44.59;100133.56;4984083;28;20084;-89
2022/08/26 09:06:03;;;;;;;10.73;5.90;;;;;;;33.97;44.55;100134.66;4995982;28;20053;-89
2022/08/26 09:08:33;;;;;;;17.33;7.53;;;;;;;34.79;41.69;100138.94;4996442;28;20034;-86
2022/08/26 09:11:01;;;;;;;13.05;6.63;;;;;;;35.12;41.29;100137.16;4994389;28;20040;-88
2022/08/26 09:13:28;;;;;;;14.35;5.80;;;;;;;34.80;41.72;100137.81;4991007;28;20039;-90
2022/08/26 09:16:00;;;;;;;21.65;7.00;;;;;;;34.51;42.61;100135.81;4988839;28;20035;-88
2022/08/26 09:18:58;;;;;;;12.45;6.20;;;;;;;34.33;41.80;100125.22;4979410;28;20042;-88
2022/08/26 09:21:27;;;;;;;18.17;7.28;;;;;;;34.43;41.53;100130.34;4984583;28;20477;-88
2022/08/26 09:23:55;;;;;;;15.95;7.38;;;;;;;34.12;42.63;100125.09;4987630;28;20176;-88
2022/08/26 09:26:25;;;;;;;12.80;6.80;;;;;;;34.32;42.43;100129.09;4986492;28;20034;-89
2022/08/26 09:28:59;;;;;;;11.27;6.38;;;;;;;33.98;43.56;100125.28;4983067;28;20035;-89
2022/08/26 09:31:34;;;;;;;9.90;5.60;;;;;;;33.88;43.63;100130.31;4975417;28;20547;-91
2022/08/26 09:34:16;;;;;;;11.15;6.63;;;;;;;34.15;43.32;100136.25;4963859;28;20065;-89
2022/08/26 09:36:45;;;;;;;10.35;6.22;;;;;;;33.99;43.41;100121.41;4965151;28;20045;-87
2022/08/26 09:39:22;;;;;;;16.90;7.18;;;;;;;34.00;43.07;100123.03;4979948;28;20038;-92
2022/08/26 09:42:19;;;;;;;21.33;7.80;;;;;;;34.26;42.80;100125.72;4975597;28;20435;-90
2022/08/26 09:44:55;;;;;;;16.88;7.40;;;;;;;33.99;43.34;100121.41;4956209;28;20065;-89
2022/08/26 09:47:39;;;;;;;8.75;6.35;;;;;;;34.17;43.79;100117.47;4992913;28;20026;-88
2022/08/26 09:50:17;;;;;;;9.85;7.00;;;;;;;34.17;42.65;100116.69;4987896;28;20484;-89
2022/08/26 09:52:43;;;;;;;11.35;6.07;;;;;;;34.48;42.22;100117.19;4998126;28;20492;-89
2022/08/26 09:55:14;;;;;;;19.15;8.50;;;;;;;34.59;42.35;100118.44;4998680;28;20037;-88
2022/08/26 09:57:49;;;;;;;12.85;9.10;;;;;;;34.10;43.24;100117.16;4990576;28;20027;-88
2022/08/26 10:00:29;;;;;;;16.80;10.07;;;;;;;33.93;43.92;100111.72;4955277;28;20126;-91
2022/08/26 10:02:59;;;;;;;8.60;6.68;;;;;;;34.25;44.01;100111.16;4984428;28;20041;-91
2022/08/26 10:05:41;;;;;;;11.98;8.10;;;;;;;34.83;42.34;100108.81;4964632;28;20043;-88
2022/08/26 10:08:22;;;;;;;10.95;6.80;;;;;;;34.74;42.93;100108.84;4990373;28;20162;-91
2022/08/26 10:10:49;;;;;;;11.98;6.63;;;;;;;34.54;42.80;100106.81;4972623;28;20190;-90
2022/08/26 10:13:41;;;;;;;10.45;5.53;;;;;;;35.15;41.69;100100.66;4970085;28;20029;-92
2022/08/26 10:16:47;;;;;;;12.77;5.40;;;;;;;35.07;41.82;100108.94;4976203;28;20027;-91
2022/08/26 10:19:21;;;;;;;10.27;5.63;;;;;;;35.95;39.00;100109.53;4973739;28;20061;-90
2022/08/26 10:22:28;;;;;;;27.67;5.82;;;;;;;35.10;40.43;100109.09;4984941;28;20058;-90
2022/08/26 10:24:58;;;;;;;10.30;4.50;;;;;;;35.22;40.56;100103.69;4987382;28;20045;-93
2022/08/26 10:27:42;;;;;;;14.63;5.18;;;;;;;35.26;39.93;100104.63;4983718;28;20049;-90
2022/08/26 10:30:13;;;;;;;12.30;5.07;;;;;;;35.83;39.14;100101.19;4976149;28;20043;-92
2022/08/26 10:32:43;;;;;;;12.20;5.72;;;;;;;35.41;39.82;100096.88;5005142;28;20027;-90
2022/08/26 10:35:11;;;;;;;9.05;4.72;;;;;;;35.52;39.79;100093.38;4970636;28;20514;-90
2022/08/26 10:38:03;;;;;;;8.90;5.35;;;;;;;35.06;39.85;100093.56;5003575;28;20129;-90
2022/08/26 10:40:45;;;;;;;13.30;5.87;;;;;;;35.06;38.83;100082.56;4974606;28;20105;-91
2022/08/26 10:43:43;;;;;;;11.55;4.78;;;;;;;35.24;38.75;100084.84;4968874;28;20069;-92
2022/08/26 10:46:18;;;;;;;12.10;4.88;;;;;;;34.84;40.08;100077.34;4950126;28;20052;-92
2022/08/26 10:48:55;;;;;;;12.57;4.88;;;;;;;34.76;40.95;100079.03;4982057;28;20037;-92
2022/08/26 10:51:55;;;;;;;23.63;4.65;;;;;;;35.16;40.37;100071.97;5023546;23;20051;-92
2022/08/26 10:58:10;;;;;;;10.65;4.15;;;;;;;34.70;39.08;100063.84;5008587;23;19913;-94
2022/08/26 11:04:25;;;;;;;11.90;4.30;;;;;;;34.79;38.19;100064.59;4988530;28;20102;-94
2022/08/26 11:07:30;;;;;;;8.02;3.75;;;;;;;35.11;37.99;100063.09;4987373;28;20047;-92
2022/08/26 11:10:01;;;;;;;5.65;3.65;;;;;;;34.95;38.16;100051.84;4969093;28;20037;-94
2022/08/26 11:15:48;;;;;;;7.25;3.60;;;;;;;35.95;36.46;100040.56;4976623;28;20047;-92
2022/08/26 11:24:34;;;;;;;10.23;4.45;;;;;;;36.34;35.08;100035.53;4993236;28;20054;-93
2022/08/26 11:27:25;;;;;;;8.60;4.07;;;;;;;36.68;34.54;100029.56;4908052;29;20051;-93
2022/08/26 11:30:04;;;;;;;10.73;3.67;;;;;;;36.51;34.68;100033.34;4891312;29;20047;-91
2022/08/26 11:32:38;;;;;;;12.07;4.00;;;;;;;36.54;34.94;100029.13;4931469;29;20040;-93
2022/08/26 11:51:55;;;;;;;12.23;3.97;;;;;;;35.07;36.50;100007.00;5111494;23;20058;-84
2022/08/26 11:55:24;;;;;;;8.98;3.70;;;;;;;34.12;36.75;100004.88;4959931;28;20062;-87
2022/08/26 12:19:50;;;;;;;;;;;;;;;32.25;40.91;99958.78;5710459;23;20050;-86
2022/08/26 12:23:34;;;;;;;8.75;3.60;;;;;;;32.31;41.63;99958.63;5005767;28;19909;-84
2022/08/26 12:35:43;;;;;;;11.15;3.53;;;;;;;32.11;40.77;99947.13;5501824;23;20249;-87
2022/08/26 12:38:43;;;;;;;5.97;3.03;;;;;;;32.28;40.69;99930.69;4885268;29;20048;-90
2022/08/26 12:41:38;;;;;;;12.13;3.17;;;;;;;32.17;40.25;99932.16;4886767;29;20045;-93
2022/08/26 12:49:38;;;;;;;;;;;;;;;32.45;39.09;99918.16;5020244;23;20054;-83
2022/08/26 12:52:44;;;;;;;7.50;3.45;;;;;;;32.39;38.14;99913.94;5006726;28;19910;-88
2022/08/26 12:55:51;;;;;;;6.32;2.63;;;;;;;32.29;37.91;99915.06;5015508;28;20038;-85
2022/08/26 12:58:20;;;;;;;5.32;3.03;;;;;;;32.08;38.33;99914.88;5018496;28;20043;-88
2022/08/26 13:01:08;;;;;;;8.00;3.35;;;;;;;32.19;38.89;99907.13;5017959;28;20018;-88
2022/08/26 13:04:02;;;;;;;7.20;4.25;;;;;;;32.38;38.23;99904.91;5007683;28;20027;-88
2022/08/26 13:07:29;;;;;;;8.93;3.40;;;;;;;32.43;38.50;99904.75;5480781;23;20058;-88
2022/08/26 13:10:19;;;;;;;5.68;3.10;;;;;;;32.71;38.89;99894.31;4978449;28;20146;-86
2022/08/26 13:13:17;;;;;;;7.03;2.85;;;;;;;32.75;36.60;99901.53;5008911;28;20039;-85
2022/08/26 13:16:27;;;;;;;5.78;2.90;;;;;;;32.97;36.78;99903.31;4997063;28;20035;-83
2022/08/26 13:22:28;;;;;;;5.90;2.90;;;;;;;32.78;36.38;99894.59;5118985;23;20034;-88
2022/08/26 13:25:24;;;;;;;7.40;2.78;;;;;;;32.53;37.51;99887.16;5000784;28;20043;-86
2022/08/26 13:28:20;;;;;;;8.55;3.47;;;;;;;32.68;39.55;99889.47;4996389;28;20081;-88
2022/08/26 13:31:31;;;;;;;11.30;3.80;;;;;;;32.40;39.46;99877.16;5015721;28;20094;-86